Time;durP1;ratioP1;P1;durP2;ratioP2;P2;SDS_P1;SDS_P2;PMS_P1;PMS_P2;Temp;Humidity;BMP_temperature;BMP_pressure;BME280_temperature;BME280_humidity;BME280_pressure;Samples;Min_cycle;Max_cycle;Signal;HPM_P1;HPM_P2
2023/07/15 00:00:23;;;;;;;46.80;30.08;;;;;;;29.58;100.00;97543.88;4805339;29;20394;-68
2023/07/15 00:02:54;;;;;;;53.25;32.45;;;;;;;29.55;100.00;97536.38;4807856;29;20497;-68
2023/07/15 00:05:34;;;;;;;50.42;30.55;;;;;;;29.51;100.00;97536.28;4809549;29;20050;-68
2023/07/15 00:08:05;;;;;;;40.47;27.17;;;;;;;29.54;100.00;97535.59;4837701;29;20535;-68
2023/07/15 00:10:38;;;;;;;40.63;28.02;;;;;;;29.53;100.00;97547.63;4823286;29;20058;-68
2023/07/15 00:13:18;;;;;;;42.13;27.15;;;;;;;29.56;100.00;97554.34;4809429;29;20054;-68
2023/07/15 00:15:53;;;;;;;47.60;30.23;;;;;;;29.54;100.00;97557.41;4806059;29;20042;-68
2023/07/15 00:18:22;;;;;;;46.25;29.83;;;;;;;29.55;100.00;97547.31;4807221;29;20083;-68
2023/07/15 00:20:52;;;;;;;42.40;27.15;;;;;;;29.53;100.00;97555.03;4808846;29;20058;-68
2023/07/15 00:23:24;;;;;;;43.40;28.17;;;;;;;29.52;100.00;97567.09;4837716;29;20050;-67
2023/07/15 00:25:56;;;;;;;42.85;28.75;;;;;;;29.53;100.00;97561.28;4806911;29;20732;-68
2023/07/15 00:28:26;;;;;;;43.45;26.67;;;;;;;29.56;100.00;97568.78;4809102;29;20049;-69
2023/07/15 00:30:55;;;;;;;41.70;27.55;;;;;;;29.56;100.00;97574.25;4805309;29;20222;-68
2023/07/15 00:33:25;;;;;;;48.28;31.38;;;;;;;29.56;100.00;97576.97;4836004;29;20108;-68
2023/07/15 00:35:54;;;;;;;49.45;32.83;;;;;;;29.56;100.00;97578.91;4832581;29;20153;-68
2023/07/15 00:38:23;;;;;;;55.67;34.22;;;;;;;29.53;100.00;97569.47;4806814;29;20467;-68
2023/07/15 00:40:53;;;;;;;53.17;33.25;;;;;;;29.59;100.00;97570.03;4819688;29;20050;-68
2023/07/15 00:43:53;;;;;;;57.20;33.55;;;;;;;29.58;100.00;97574.69;4810314;29;20106;-68
2023/07/15 00:46:31;;;;;;;53.38;33.38;;;;;;;29.61;100.00;97576.72;4830590;29;20047;-68
2023/07/15 00:49:22;;;;;;;50.10;31.08;;;;;;;29.63;100.00;97584.56;4839620;29;20412;-68
2023/07/15 00:52:14;;;;;;;53.17;33.78;;;;;;;29.65;100.00;97585.03;4837731;29;20757;-68
2023/07/15 00:54:48;;;;;;;56.45;34.20;;;;;;;29.68;100.00;97581.63;4839217;29;20081;-68
2023/07/15 00:57:20;;;;;;;52.08;31.27;;;;;;;29.71;100.00;97583.66;4836799;29;20061;-68
2023/07/15 00:59:54;;;;;;;50.78;31.63;;;;;;;29.71;100.00;97578.19;4824416;29;20054;-68
2023/07/15 01:02:25;;;;;;;53.17;30.35;;;;;;;29.75;100.00;97581.81;4818441;29;20077;-68
2023/07/15 01:04:55;;;;;;;48.63;31.38;;;;;;;29.77;100.00;97576.81;4840249;29;20069;-68
2023/07/15 01:07:25;;;;;;;45.22;28.80;;;;;;;29.79;100.00;97579.97;4823397;29;20137;-68
2023/07/15 01:09:55;;;;;;;46.88;28.23;;;;;;;29.83;100.00;97580.88;4836471;29;20141;-67
2023/07/15 01:12:26;;;;;;;43.78;28.05;;;;;;;29.85;100.00;97578.63;4808908;29;20479;-68
2023/07/15 01:14:56;;;;;;;46.20;30.05;;;;;;;29.90;100.00;97586.59;4806604;29;20069;-68
2023/07/15 01:17:26;;;;;;;43.78;27.52;;;;;;;29.94;100.00;97582.03;4810363;29;20060;-68
2023/07/15 01:19:56;;;;;;;43.53;27.65;;;;;;;29.98;100.00;97580.19;4840194;29;20491;-68
2023/07/15 01:22:27;;;;;;;45.10;29.77;;;;;;;29.99;100.00;97583.72;4841725;29;20545;-68
2023/07/15 01:24:57;;;;;;;46.50;29.70;;;;;;;30.01;100.00;97582.22;4827821;29;20050;-68
2023/07/15 01:27:27;;;;;;;46.25;29.25;;;;;;;30.06;100.00;97578.47;4824724;29;20530;-68
2023/07/15 01:29:56;;;;;;;42.72;28.33;;;;;;;30.08;100.00;97577.00;4840065;29;20412;-68
2023/07/15 01:32:26;;;;;;;39.70;27.15;;;;;;;30.15;100.00;97579.91;4822485;29;20050;-69
2023/07/15 01:34:56;;;;;;;42.80;28.17;;;;;;;30.21;100.00;97585.94;4824291;29;20054;-68
2023/07/15 01:37:26;;;;;;;40.28;27.10;;;;;;;30.26;100.00;97581.00;4825824;29;20058;-68
2023/07/15 01:39:55;;;;;;;41.67;27.52;;;;;;;30.26;100.00;97583.75;4824414;29;20058;-68
2023/07/15 01:42:25;;;;;;;41.58;28.00;;;;;;;30.24;100.00;97577.03;4824958;29;20070;-68
2023/07/15 01:44:54;;;;;;;41.75;26.67;;;;;;;30.37;100.00;97577.75;4808666;29;20164;-68
2023/07/15 01:47:24;;;;;;;42.28;27.40;;;;;;;30.35;100.00;97583.59;4824817;29;20056;-68
2023/07/15 01:49:54;;;;;;;46.30;28.75;;;;;;;30.30;100.00;97579.19;4836794;29;20062;-67
2023/07/15 01:52:23;;;;;;;43.58;27.65;;;;;;;30.47;100.00;97580.03;4825735;29;20050;-68
2023/07/15 01:54:52;;;;;;;44.42;27.63;;;;;;;30.52;100.00;97577.84;4826320;29;20553;-67
2023/07/15 01:57:22;;;;;;;40.72;29.30;;;;;;;30.56;100.00;97576.00;4823272;29;20062;-68
2023/07/15 01:59:57;;;;;;;42.05;26.60;;;;;;;30.73;100.00;97566.66;4823308;29;20065;-68
2023/07/15 02:02:27;;;;;;;36.25;25.58;;;;;;;30.88;100.00;97573.31;4817193;29;20688;-68
2023/07/15 02:04:57;;;;;;;39.03;26.73;;;;;;;30.76;100.00;97569.47;4805757;29;20050;-68
2023/07/15 02:07:26;;;;;;;38.80;26.48;;;;;;;30.89;100.00;97566.69;4819280;29;20052;-68
2023/07/15 02:09:56;;;;;;;38.75;26.88;;;;;;;30.88;100.00;97570.56;4838238;29;20050;-68
2023/07/15 02:12:27;;;;;;;36.25;25.55;;;;;;;31.16;100.00;97579.47;4823827;29;20050;-68
2023/07/15 02:14:57;;;;;;;39.30;26.00;;;;;;;31.13;100.00;97574.72;4812836;29;20062;-68
2023/07/15 02:17:26;;;;;;;31.98;23.15;;;;;;;31.63;100.00;97590.41;4828803;29;20576;-68
2023/07/15 02:19:58;;;;;;;34.58;25.42;;;;;;;31.89;100.00;97596.06;4825045;29;20046;-68
2023/07/15 02:22:28;;;;;;;35.92;25.98;;;;;;;32.08;98.65;97596.09;4814858;29;20476;-68
2023/07/15 02:24:57;;;;;;;33.85;25.15;;;;;;;32.04;98.21;97592.47;4805683;29;20142;-68
2023/07/15 02:27:31;;;;;;;36.70;25.10;;;;;;;32.21;96.59;97585.00;4836877;29;20330;-66
2023/07/15 02:30:00;;;;;;;34.15;24.80;;;;;;;32.40;96.36;97593.22;4835925;29;20053;-66
2023/07/15 02:32:39;;;;;;;36.97;25.80;;;;;;;32.16;97.21;97593.53;4805602;29;20149;-66
2023/07/15 02:35:11;;;;;;;33.67;24.65;;;;;;;32.23;97.04;97588.97;4837372;29;20050;-66
2023/07/15 02:37:43;;;;;;;39.05;25.23;;;;;;;32.33;97.95;97599.34;4837245;29;20058;-67
2023/07/15 02:40:13;;;;;;;38.33;25.33;;;;;;;32.49;95.92;97602.81;4837170;29;20054;-67
2023/07/15 02:42:42;;;;;;;34.28;25.25;;;;;;;32.22;96.45;97603.81;4838824;29;20427;-67
2023/07/15 02:45:12;;;;;;;36.75;25.55;;;;;;;32.15;96.95;97605.63;4809612;29;20051;-67
2023/07/15 02:47:41;;;;;;;36.20;24.02;;;;;;;32.33;96.99;97615.81;4821232;29;20057;-67
2023/07/15 02:50:12;;;;;;;34.80;24.08;;;;;;;32.43;95.41;97617.19;4806252;29;20058;-67
2023/07/15 02:52:42;;;;;;;31.45;23.02;;;;;;;32.56;95.49;97615.88;4839496;29;20050;-66
2023/07/15 02:55:12;;;;;;;32.80;24.83;;;;;;;32.97;95.34;97628.78;4824265;29;20395;-67
2023/07/15 02:57:41;;;;;;;33.00;23.95;;;;;;;33.09;93.63;97621.56;4836652;29;20085;-67
2023/07/15 03:00:15;;;;;;;34.40;24.10;;;;;;;33.09;92.90;97630.56;4819563;29;20054;-67
2023/07/15 03:02:47;;;;;;;34.13;24.60;;;;;;;32.85;94.55;97633.66;4820017;29;20499;-67
2023/07/15 03:05:17;;;;;;;33.33;24.30;;;;;;;32.90;93.61;97625.94;4827921;29;20114;-67
2023/07/15 03:07:47;;;;;;;32.55;24.48;;;;;;;33.30;91.51;97635.66;4807096;29;20157;-66
2023/07/15 03:10:18;;;;;;;34.53;24.63;;;;;;;33.35;89.89;97640.84;4831652;29;20900;-67
2023/07/15 03:12:48;;;;;;;32.47;23.95;;;;;;;33.52;89.48;97637.56;4838701;29;20060;-67
2023/07/15 03:15:18;;;;;;;33.65;24.05;;;;;;;33.77;89.23;97629.72;4828122;29;20042;-67
2023/07/15 03:17:47;;;;;;;30.65;22.70;;;;;;;33.89;89.22;97635.03;4822847;29;20446;-66
2023/07/15 03:20:19;;;;;;;30.48;22.85;;;;;;;33.49;89.35;97623.81;4818554;29;20074;-67
2023/07/15 03:22:50;;;;;;;29.70;23.48;;;;;;;33.38;89.75;97632.66;4821488;29;20045;-67
2023/07/15 03:25:21;;;;;;;30.20;23.45;;;;;;;33.54;89.91;97626.25;4824995;29;20060;-66
2023/07/15 03:27:51;;;;;;;32.78;23.67;;;;;;;33.39;91.22;97638.94;4822107;29;20069;-67
2023/07/15 03:30:21;;;;;;;31.02;22.48;;;;;;;33.38;90.47;97638.16;4807429;29;20121;-67
2023/07/15 03:32:53;;;;;;;31.02;22.63;;;;;;;33.27;88.94;97642.69;4819098;29;20506;-67
2023/07/15 03:35:23;;;;;;;;;;;;;;;32.96;90.83;97651.91;4819521;29;20065;-68
2023/07/15 03:37:52;;;;;;;31.50;22.98;;;;;;;32.85;91.34;97659.16;4820883;29;20765;-68
2023/07/15 03:40:22;;;;;;;31.85;23.95;;;;;;;32.60;92.80;97659.78;4839477;29;20062;-68
2023/07/15 03:42:51;;;;;;;27.75;22.52;;;;;;;32.46;92.52;97660.31;4813256;29;20068;-68
2023/07/15 03:45:20;;;;;;;30.90;21.98;;;;;;;32.60;93.33;97668.81;4824225;29;20126;-67
2023/07/15 03:47:49;;;;;;;32.78;23.85;;;;;;;32.30;93.90;97654.09;4828067;29;20141;-67
2023/07/15 03:50:19;;;;;;;29.90;23.08;;;;;;;32.26;95.33;97654.03;4827994;29;20612;-67
2023/07/15 03:52:48;;;;;;;34.78;24.70;;;;;;;32.13;94.89;97658.06;4825455;29;20078;-67
2023/07/15 03:55:17;;;;;;;29.38;23.10;;;;;;;31.69;97.26;97657.41;4830537;29;20475;-68
2023/07/15 03:57:46;;;;;;;33.88;22.13;;;;;;;31.97;95.98;97663.56;4825648;29;20137;-68
2023/07/15 04:00:17;;;;;;;29.80;22.73;;;;;;;32.04;96.53;97660.19;4821438;29;20050;-67
2023/07/15 04:02:49;;;;;;;34.70;23.30;;;;;;;31.94;97.04;97656.06;4795162;29;20796;-70
2023/07/15 04:05:18;;;;;;;33.10;23.80;;;;;;;31.99;97.82;97661.25;4826302;29;20586;-67
2023/07/15 04:07:48;;;;;;;32.63;22.67;;;;;;;31.94;97.64;97656.06;4841027;29;20064;-68
2023/07/15 04:10:17;;;;;;;35.75;25.27;;;;;;;31.89;99.50;97664.53;4819509;29;20157;-67
2023/07/15 04:12:46;;;;;;;34.20;24.20;;;;;;;31.92;97.86;97657.53;4819232;29;20088;-67
2023/07/15 04:15:16;;;;;;;30.83;23.25;;;;;;;31.99;97.42;97663.19;4830995;29;20460;-67
2023/07/15 04:17:45;;;;;;;34.30;24.23;;;;;;;32.17;96.73;97653.47;4839627;29;20046;-67
2023/07/15 04:20:17;;;;;;;37.90;26.23;;;;;;;32.27;96.88;97652.06;4838756;29;20542;-68
2023/07/15 04:22:46;;;;;;;39.00;25.30;;;;;;;32.33;95.58;97653.38;4834588;29;20453;-67
2023/07/15 04:25:16;;;;;;;34.65;24.00;;;;;;;32.46;94.90;97665.78;4824277;29;20049;-66
2023/07/15 04:27:46;;;;;;;34.08;24.80;;;;;;;32.57;93.61;97672.28;4808785;29;20053;-67
2023/07/15 04:30:16;;;;;;;29.77;20.83;;;;;;;32.60;92.13;97679.00;4825586;29;20174;-66
2023/07/15 04:32:46;;;;;;;25.40;16.35;;;;;;;32.63;90.35;97672.81;4822821;29;20132;-66
2023/07/15 04:35:15;;;;;;;23.95;16.48;;;;;;;32.83;89.35;97680.69;4824210;29;20058;-66
2023/07/15 04:37:45;;;;;;;27.05;16.60;;;;;;;32.60;88.04;97679.00;4822493;29;20146;-66
2023/07/15 04:40:14;;;;;;;26.15;16.00;;;;;;;32.15;88.49;97672.19;4824670;29;20065;-67
2023/07/15 04:42:43;;;;;;;25.08;16.58;;;;;;;32.68;89.63;97673.31;4821351;29;20050;-67
2023/07/15 04:45:14;;;;;;;23.33;16.88;;;;;;;33.04;87.24;97671.25;4822621;29;20064;-67
2023/07/15 04:47:43;;;;;;;21.85;17.02;;;;;;;33.49;87.50;97668.53;4821016;29;20483;-68
2023/07/15 04:50:13;;;;;;;26.52;18.42;;;;;;;33.28;86.34;97662.69;4838695;29;20062;-68
2023/07/15 04:52:42;;;;;;;29.17;18.05;;;;;;;33.05;86.05;97664.59;4839842;29;20058;-68
2023/07/15 04:55:13;;;;;;;25.65;18.95;;;;;;;33.94;85.75;97673.19;4823652;29;20065;-67
2023/07/15 04:57:45;;;;;;;24.92;17.63;;;;;;;33.48;82.40;97675.19;4823651;29;20054;-67
2023/07/15 05:00:16;;;;;;;30.40;17.27;;;;;;;33.72;83.85;97672.06;4810461;29;20078;-67
2023/07/15 05:02:46;;;;;;;26.52;17.70;;;;;;;34.36;83.36;97678.47;4822557;29;20058;-67
2023/07/15 05:05:16;;;;;;;27.35;18.95;;;;;;;34.57;81.25;97675.19;4799200;29;20050;-67
2023/07/15 05:07:45;;;;;;;25.00;18.95;;;;;;;34.69;80.77;97672.25;4823544;29;20399;-68
2023/07/15 05:10:25;;;;;;;26.73;19.60;;;;;;;34.71;78.65;97670.69;4823565;29;20857;-68
2023/07/15 05:12:55;;;;;;;30.05;19.55;;;;;;;34.78;82.15;97669.19;4831994;29;20056;-68
2023/07/15 05:15:24;;;;;;;26.58;19.77;;;;;;;34.70;79.55;97666.34;4826788;29;20509;-68
2023/07/15 05:17:53;;;;;;;29.38;19.77;;;;;;;34.85;78.82;97661.81;4826484;29;20141;-70
2023/07/15 05:20:24;;;;;;;27.67;19.75;;;;;;;34.73;78.56;97664.81;4822464;29;20190;-68
2023/07/15 05:22:54;;;;;;;27.30;21.65;;;;;;;34.59;77.53;97659.13;4841575;29;20042;-69
2023/07/15 05:25:24;;;;;;;29.08;21.00;;;;;;;34.79;80.19;97662.53;4830903;29;20062;-69
2023/07/15 05:27:53;;;;;;;28.27;20.30;;;;;;;34.61;81.32;97665.81;4819658;29;20089;-68
2023/07/15 05:30:23;;;;;;;25.92;20.15;;;;;;;34.54;78.88;97665.75;4831564;29;20490;-68
2023/07/15 05:32:53;;;;;;;28.80;21.60;;;;;;;34.56;78.09;97671.69;4823534;29;20061;-70
2023/07/15 05:35:22;;;;;;;27.33;20.23;;;;;;;34.59;78.93;97676.41;4826229;29;20060;-69
2023/07/15 05:37:52;;;;;;;30.48;20.50;;;;;;;34.71;79.67;97675.41;4830150;29;20060;-69
2023/07/15 05:40:22;;;;;;;25.45;20.20;;;;;;;34.57;78.36;97666.94;4822399;29;20099;-66
2023/07/15 05:42:52;;;;;;;28.00;21.25;;;;;;;34.56;79.33;97655.19;4818330;29;20082;-68
2023/07/15 05:45:22;;;;;;;26.73;19.00;;;;;;;34.62;80.20;97652.84;4794144;29;21256;-67
2023/07/15 05:47:51;;;;;;;26.20;20.83;;;;;;;34.78;76.92;97658.97;4827346;29;20058;-66
2023/07/15 05:50:21;;;;;;;28.88;20.58;;;;;;;34.83;77.18;97663.34;4810894;29;21637;-67
2023/07/15 05:52:52;;;;;;;27.15;20.83;;;;;;;34.79;76.44;97646.78;4818662;29;20054;-68
2023/07/15 05:55:22;;;;;;;26.63;20.00;;;;;;;34.92;76.25;97644.59;4802404;29;20073;-68
2023/07/15 05:57:51;;;;;;;26.58;21.33;;;;;;;34.82;75.96;97640.56;4829249;29;20054;-67
2023/07/15 06:00:21;;;;;;;29.33;19.75;;;;;;;34.62;80.24;97642.66;4815446;29;20375;-67
2023/07/15 06:02:50;;;;;;;29.02;19.38;;;;;;;34.77;79.09;97651.09;4816148;29;20085;-67
2023/07/15 06:05:20;;;;;;;30.35;20.98;;;;;;;34.54;79.76;97646.50;4814783;29;20042;-66
2023/07/15 06:07:51;;;;;;;25.80;20.70;;;;;;;34.42;78.67;97644.00;4817931;29;20054;-67
2023/07/15 06:10:21;;;;;;;25.90;20.63;;;;;;;34.21;79.19;97644.50;4804585;29;20266;-68
2023/07/15 06:12:50;;;;;;;33.42;22.45;;;;;;;34.42;81.15;97646.75;4832556;29;20046;-66
2023/07/15 06:15:20;;;;;;;25.40;20.27;;;;;;;34.18;82.11;97634.25;4825358;29;20047;-67
2023/07/15 06:17:52;;;;;;;25.85;20.40;;;;;;;34.47;82.20;97623.63;4821664;29;20697;-67
2023/07/15 06:20:23;;;;;;;27.42;20.63;;;;;;;34.56;79.68;97630.41;4834837;29;20104;-68
2023/07/15 06:22:53;;;;;;;26.90;21.55;;;;;;;34.65;78.79;97630.88;4819499;29;20113;-68
2023/07/15 06:25:23;;;;;;;29.65;20.98;;;;;;;35.09;77.54;97628.25;4816656;29;20054;-67
2023/07/15 06:27:56;;;;;;;33.10;21.35;;;;;;;34.61;76.96;97632.81;4818336;29;20232;-68
2023/07/15 06:30:26;;;;;;;28.38;21.58;;;;;;;34.72;79.22;97625.50;4820146;29;20135;-68
2023/07/15 06:32:55;;;;;;;29.27;22.00;;;;;;;34.63;78.74;97616.72;4795898;29;20596;-68
2023/07/15 06:35:25;;;;;;;30.80;21.95;;;;;;;35.05;77.45;97610.88;4822573;29;20064;-67
2023/07/15 06:37:55;;;;;;;29.42;23.17;;;;;;;35.16;77.39;97611.00;4815134;29;20060;-68
2023/07/15 06:40:24;;;;;;;27.33;22.48;;;;;;;34.81;75.84;97600.44;4817079;29;20069;-68
2023/07/15 06:42:54;;;;;;;31.65;23.05;;;;;;;34.46;78.54;97605.53;4813174;29;20078;-69
2023/07/15 06:45:33;;;;;;;28.95;21.35;;;;;;;34.69;78.96;97609.75;4812355;29;20581;-67
2023/07/15 06:48:04;;;;;;;28.35;22.90;;;;;;;34.62;78.12;97612.38;4825245;29;20153;-67
2023/07/15 06:50:36;;;;;;;29.77;23.33;;;;;;;34.72;79.15;97611.75;4828044;29;20058;-68
2023/07/15 06:53:08;;;;;;;27.80;22.98;;;;;;;34.52;78.95;97610.31;4784799;29;20065;-68
2023/07/15 06:55:37;;;;;;;30.70;24.90;;;;;;;34.21;77.89;97594.25;4809240;29;20054;-69
2023/07/15 06:58:07;;;;;;;32.25;24.08;;;;;;;34.10;78.94;97594.09;4811124;29;20058;-68
2023/07/15 07:00:36;;;;;;;26.98;23.02;;;;;;;34.22;78.83;97595.81;4814246;29;20073;-66
2023/07/15 07:03:06;;;;;;;28.58;23.08;;;;;;;34.33;78.22;97591.25;4783694;29;20046;-70
2023/07/15 07:05:35;;;;;;;33.47;26.13;;;;;;;34.11;78.10;97592.94;4817283;29;20091;-75
2023/07/15 07:08:06;;;;;;;34.05;25.85;;;;;;;33.89;78.86;97588.31;4797485;29;20058;-73
2023/07/15 07:10:36;;;;;;;29.92;24.35;;;;;;;34.05;81.63;97586.16;4811709;29;20076;-74
2023/07/15 07:13:06;;;;;;;32.97;24.58;;;;;;;33.93;79.42;97583.66;4816286;29;20786;-70
2023/07/15 07:15:35;;;;;;;31.98;24.52;;;;;;;33.81;79.50;97589.41;4798356;29;20277;-69
2023/07/15 07:18:06;;;;;;;32.53;24.90;;;;;;;33.72;79.97;97589.66;4817406;29;20101;-71
2023/07/15 07:20:36;;;;;;;32.85;25.52;;;;;;;33.78;82.09;97577.19;4798925;29;20059;-69
2023/07/15 07:23:05;;;;;;;28.77;24.45;;;;;;;33.84;77.41;97586.69;4811326;29;20139;-68
2023/07/15 07:25:35;;;;;;;29.45;24.10;;;;;;;33.87;80.80;97579.66;4817875;29;20082;-67
2023/07/15 07:28:04;;;;;;;33.42;22.52;;;;;;;33.73;83.48;97576.69;4811669;29;20144;-67
2023/07/15 07:30:34;;;;;;;32.45;24.60;;;;;;;33.45;85.74;97570.78;4811573;29;20054;-66
2023/07/15 07:33:03;;;;;;;34.25;24.42;;;;;;;33.06;87.04;97568.19;4821524;29;20060;-68
2023/07/15 07:35:33;;;;;;;34.50;23.92;;;;;;;32.90;89.54;97573.00;4814456;29;20215;-71
2023/07/15 07:38:02;;;;;;;33.88;25.02;;;;;;;32.73;88.40;97568.81;4817824;29;20054;-69
2023/07/15 07:40:35;;;;;;;;;;;;;;;32.50;90.00;97573.44;4829796;29;20050;-67
2023/07/15 07:43:05;;;;;;;32.97;24.10;;;;;;;32.37;91.85;97574.75;4820146;29;19936;-68
2023/07/15 07:45:41;;;;;;;37.67;24.85;;;;;;;32.30;91.57;97569.94;4835081;29;20638;-67
2023/07/15 07:48:11;;;;;;;35.72;25.52;;;;;;;32.28;90.99;97569.50;4815097;29;20050;-69
2023/07/15 07:50:41;;;;;;;32.40;25.95;;;;;;;32.20;90.30;97569.72;4798056;29;20065;-69
2023/07/15 07:53:10;;;;;;;34.15;25.67;;;;;;;32.23;92.87;97569.78;4828444;29;20126;-67
2023/07/15 07:55:41;;;;;;;33.75;24.98;;;;;;;32.11;92.10;97575.41;4817967;29;20627;-68
2023/07/15 07:58:14;;;;;;;34.50;25.73;;;;;;;32.13;94.88;97575.88;4814144;29;20145;-68
2023/07/15 08:00:44;;;;;;;36.17;27.38;;;;;;;31.97;93.17;97564.94;4808806;29;20050;-73
2023/07/15 08:03:14;;;;;;;39.35;27.13;;;;;;;31.83;94.03;97559.16;4833044;29;20066;-68
2023/07/15 08:05:47;;;;;;;37.63;28.50;;;;;;;31.74;94.45;97553.09;4816632;29;20046;-72
2023/07/15 08:08:16;;;;;;;40.03;29.25;;;;;;;31.70;97.15;97554.16;4817132;29;20046;-63
2023/07/15 08:10:46;;;;;;;41.25;30.08;;;;;;;31.65;96.29;97550.56;4811696;29;20162;-68
2023/07/15 08:13:16;;;;;;;44.60;31.63;;;;;;;31.57;97.43;97559.78;4798970;29;20503;-68
2023/07/15 08:15:46;;;;;;;42.47;33.20;;;;;;;31.31;100.00;97565.00;4829887;29;20058;-68
2023/07/15 08:18:16;;;;;;;44.25;32.65;;;;;;;30.97;100.00;97552.84;4812306;29;20049;-69
2023/07/15 08:20:45;;;;;;;38.88;30.27;;;;;;;30.86;100.00;97550.97;4817621;29;20061;-69
2023/07/15 08:23:15;;;;;;;36.30;29.67;;;;;;;30.65;100.00;97556.69;4820913;29;20429;-69
2023/07/15 08:25:49;;;;;;;39.72;30.90;;;;;;;30.56;100.00;97559.59;4822437;29;20113;-65
2023/07/15 08:28:19;;;;;;;41.20;32.40;;;;;;;30.55;100.00;97547.06;4824463;29;20118;-67
2023/07/15 08:30:49;;;;;;;35.35;26.90;;;;;;;30.39;100.00;97543.50;4824703;29;20142;-67
2023/07/15 08:33:19;;;;;;;33.55;26.23;;;;;;;30.46;100.00;97529.25;4822094;29;20480;-67
2023/07/15 08:35:48;;;;;;;32.03;24.63;;;;;;;30.48;100.00;97544.16;4837143;29;20788;-66
2023/07/15 08:38:18;;;;;;;32.97;25.40;;;;;;;30.45;100.00;97541.34;4818993;29;20137;-66
2023/07/15 08:40:51;;;;;;;29.38;23.27;;;;;;;30.36;100.00;97533.25;4836577;29;20054;-66
2023/07/15 08:43:20;;;;;;;32.63;23.58;;;;;;;30.39;100.00;97529.03;4821422;29;20736;-66
2023/07/15 08:45:51;;;;;;;32.60;25.45;;;;;;;30.34;100.00;97530.88;4823018;29;20073;-67
2023/07/15 08:48:21;;;;;;;31.92;24.42;;;;;;;30.12;100.00;97538.84;4821593;29;20054;-67
2023/07/15 08:50:52;;;;;;;32.22;24.42;;;;;;;30.02;100.00;97534.66;4834515;29;20082;-69
2023/07/15 08:53:28;;;;;;;30.30;24.48;;;;;;;29.81;100.00;97525.84;4819990;29;20118;-69
2023/07/15 08:55:59;;;;;;;27.45;22.83;;;;;;;29.61;100.00;97524.09;4815849;29;20089;-69
2023/07/15 08:58:29;;;;;;;35.15;23.83;;;;;;;29.55;100.00;97525.47;4829267;29;20051;-70
2023/07/15 09:00:58;;;;;;;36.17;26.45;;;;;;;29.40;100.00;97516.84;4815448;29;20700;-68
2023/07/15 09:03:28;;;;;;;34.83;24.95;;;;;;;29.16;100.00;97519.59;4833629;29;20054;-67
2023/07/15 09:06:00;;;;;;;31.23;24.10;;;;;;;29.24;100.00;97505.03;4821300;29;20050;-69
2023/07/15 09:08:30;;;;;;;36.80;25.48;;;;;;;29.40;100.00;97480.59;4833319;29;20088;-68
2023/07/15 09:11:01;;;;;;;35.50;26.10;;;;;;;29.71;100.00;97472.53;4786943;29;20038;-70
2023/07/15 09:13:35;;;;;;;37.88;25.98;;;;;;;29.98;100.00;97470.97;4820759;29;20054;-69
2023/07/15 09:16:04;;;;;;;33.30;25.35;;;;;;;30.26;100.00;97462.75;4818300;29;20122;-68
2023/07/15 09:18:40;;;;;;;34.90;26.50;;;;;;;30.27;100.00;97462.38;4821849;29;20050;-69
2023/07/15 09:21:14;;;;;;;35.72;26.98;;;;;;;30.46;100.00;97447.25;4823780;29;20042;-69
2023/07/15 09:23:45;;;;;;;38.22;27.77;;;;;;;30.76;100.00;97431.97;4811866;29;20056;-70
2023/07/15 09:26:15;;;;;;;35.83;26.58;;;;;;;31.00;100.00;97425.50;4818373;29;20054;-68
2023/07/15 09:28:49;;;;;;;38.08;27.27;;;;;;;30.91;100.00;97422.97;4834425;29;20116;-68
2023/07/15 09:31:25;;;;;;;32.92;26.40;;;;;;;31.27;100.00;97424.59;4824353;29;20053;-68
2023/07/15 09:34:04;;;;;;;37.28;27.92;;;;;;;31.48;100.00;97416.00;4819851;29;20129;-67
2023/07/15 09:36:34;;;;;;;37.58;28.77;;;;;;;31.69;100.00;97407.47;4840703;29;20141;-68
2023/07/15 09:39:22;;;;;;;36.83;29.17;;;;;;;31.84;100.00;97410.13;4809248;29;20111;-68
2023/07/15 09:42:07;;;;;;;33.88;27.58;;;;;;;31.82;100.00;97403.44;4817986;29;20137;-67
2023/07/15 09:44:43;;;;;;;32.05;25.75;;;;;;;31.79;100.00;97395.91;4804543;29;20061;-67
2023/07/15 09:47:13;;;;;;;32.75;26.63;;;;;;;31.91;100.00;97398.50;4805772;29;20054;-67
2023/07/15 09:49:42;;;;;;;31.65;26.00;;;;;;;31.84;100.00;97401.09;4820248;29;20054;-67
2023/07/15 09:52:14;;;;;;;34.83;27.35;;;;;;;32.00;100.00;97397.09;4806511;29;20054;-67
2023/07/15 09:54:45;;;;;;;32.25;26.70;;;;;;;32.03;100.00;97393.66;4821054;29;20130;-67
2023/07/15 09:57:17;;;;;;;31.35;26.33;;;;;;;32.05;100.00;97394.06;4791835;29;20044;-67
2023/07/15 09:59:49;;;;;;;32.25;25.92;;;;;;;32.16;100.00;97402.50;4823651;29;20060;-67
2023/07/15 10:02:30;;;;;;;31.10;26.95;;;;;;;32.23;100.00;97394.41;4824836;29;20046;-67
2023/07/15 10:05:05;;;;;;;34.17;26.92;;;;;;;32.24;100.00;97384.22;4805117;29;20403;-68
2023/07/15 10:07:36;;;;;;;32.13;25.90;;;;;;;32.36;99.46;97386.78;4801052;29;20057;-68
2023/07/15 10:10:07;;;;;;;30.77;25.70;;;;;;;32.38;99.43;97385.28;4815110;29;20111;-67
2023/07/15 10:12:38;;;;;;;35.70;26.33;;;;;;;32.40;97.44;97390.38;4816589;29;20447;-68
2023/07/15 10:15:09;;;;;;;34.70;25.42;;;;;;;32.48;96.67;97389.34;4830391;29;20346;-68
2023/07/15 10:17:39;;;;;;;31.85;25.27;;;;;;;32.45;94.86;97387.31;4805259;29;20649;-68
2023/07/15 10:20:10;;;;;;;31.17;26.10;;;;;;;32.44;100.00;97383.00;4836783;29;20077;-68
2023/07/15 10:22:42;;;;;;;32.30;25.05;;;;;;;32.51;100.00;97377.63;4837750;29;20769;-68
2023/07/15 10:25:15;;;;;;;32.35;26.20;;;;;;;32.59;95.24;97379.31;4822971;29;20091;-68
2023/07/15 10:27:44;;;;;;;31.33;25.75;;;;;;;32.65;97.69;97368.88;4836906;29;20582;-68
2023/07/15 10:30:27;;;;;;;33.95;26.75;;;;;;;32.69;100.00;97370.50;4822001;29;20054;-70
2023/07/15 10:33:09;;;;;;;35.20;27.45;;;;;;;32.66;100.00;97364.97;4823230;29;20349;-67
2023/07/15 10:35:42;;;;;;;36.05;27.08;;;;;;;32.72;100.00;97358.78;4822913;29;20058;-68
2023/07/15 10:38:23;;;;;;;37.28;27.90;;;;;;;32.73;100.00;97354.09;4822682;29;20046;-67
2023/07/15 10:40:56;;;;;;;32.05;27.02;;;;;;;32.65;100.00;97342.25;4816239;29;20077;-68
2023/07/15 10:43:34;;;;;;;36.38;27.52;;;;;;;32.68;100.00;97348.91;4806406;29;20060;-68
2023/07/15 10:46:07;;;;;;;36.65;26.85;;;;;;;32.70;97.92;97347.41;4818870;29;20061;-68
2023/07/15 10:48:38;;;;;;;38.40;30.23;;;;;;;32.76;99.57;97345.91;4820135;29;20057;-68
2023/07/15 10:51:10;;;;;;;31.67;26.75;;;;;;;32.80;98.01;97346.75;4826884;29;20467;-68
2023/07/15 10:53:39;;;;;;;36.72;28.00;;;;;;;32.80;96.26;97352.22;4839806;29;20058;-68
2023/07/15 10:56:12;;;;;;;36.05;28.02;;;;;;;32.79;100.00;97344.41;4824876;29;20050;-70
2023/07/15 10:58:42;;;;;;;33.17;26.08;;;;;;;32.72;99.38;97338.78;4823421;29;20038;-69
2023/07/15 11:01:13;;;;;;;32.08;25.42;;;;;;;32.75;99.14;97338.84;4822704;29;20054;-68
2023/07/15 11:03:43;;;;;;;35.00;26.95;;;;;;;32.76;100.00;97340.44;4820877;29;20054;-69
2023/07/15 11:06:12;;;;;;;31.65;26.58;;;;;;;32.76;100.00;97331.41;4818068;29;20061;-69
2023/07/15 11:08:44;;;;;;;33.33;26.35;;;;;;;32.82;100.00;97329.94;4823778;29;20134;-69
2023/07/15 11:11:14;;;;;;;32.75;26.25;;;;;;;32.79;100.00;97322.44;4818862;29;20836;-69
2023/07/15 11:13:46;;;;;;;36.17;26.35;;;;;;;32.76;99.91;97318.47;4821811;29;20051;-68
2023/07/15 11:16:16;;;;;;;32.47;26.00;;;;;;;32.70;98.26;97311.75;4836258;29;20082;-68
2023/07/15 11:18:45;;;;;;;32.30;25.70;;;;;;;32.66;95.73;97321.88;4822127;29;20751;-68
2023/07/15 11:21:16;;;;;;;29.45;24.23;;;;;;;32.69;96.29;97323.09;4822595;29;20061;-68
2023/07/15 11:23:49;;;;;;;30.58;24.27;;;;;;;32.71;98.07;97316.06;4820790;29;20064;-68
2023/07/15 11:26:25;;;;;;;31.13;24.35;;;;;;;32.65;97.88;97331.28;4826874;29;20080;-69
2023/07/15 11:28:55;;;;;;;29.92;25.27;;;;;;;32.64;95.34;97320.66;4821505;29;20061;-68
2023/07/15 11:31:26;;;;;;;28.50;24.13;;;;;;;32.70;95.85;97316.44;4831178;29;20055;-69